N313WB KHOU-KAMA
Flight info
| Callsign | N313WB |
|---|---|
| Flight time | 1h 19m |
| Altitude | 47000 |
| Route | STYCK8 DOLEY HUDAD CEVEX |
| Aircraft | C750/M-SBDE3FGHRWXY/S |
Departure
| Time | 2026-04-26 19:30 |
|---|---|
| Airport | William P. Hobby Airport (KHOU) |
Arrival
| Time | 2026-04-26 20:49 |
|---|---|
| Airport | Rick Husband Amarillo International Airport (KAMA) |
| Time | Latitude | Longitude | Altitude | Speed | Heading |
|---|---|---|---|---|---|
| 2026-04-26 18:57 | 29.64720 | -95.27149 | 46 ft | 0 kts | 155° |
| 2026-04-26 19:24 | 29.64716 | -95.27150 | 49 ft | 0 kts | 195° |
| 2026-04-26 19:25 | 29.64716 | -95.27155 | 46 ft | 2 kts | 249° |
| 2026-04-26 19:25 | 29.64730 | -95.27181 | 46 ft | 8 kts | 325° |
| 2026-04-26 19:25 | 29.64800 | -95.27218 | 47 ft | 10 kts | 341° |
| 2026-04-26 19:25 | 29.64873 | -95.27230 | 48 ft | 11 kts | 31° |
| 2026-04-26 19:26 | 29.64934 | -95.27165 | 47 ft | 13 kts | 43° |
| 2026-04-26 19:26 | 29.65009 | -95.27083 | 47 ft | 16 kts | 43° |
| 2026-04-26 19:26 | 29.65093 | -95.26991 | 46 ft | 17 kts | 44° |
| 2026-04-26 19:26 | 29.65174 | -95.26899 | 46 ft | 16 kts | 45° |
| 2026-04-26 19:27 | 29.65251 | -95.26813 | 48 ft | 15 kts | 44° |
| 2026-04-26 19:27 | 29.65279 | -95.26782 | 46 ft | 0 kts | 44° |
| 2026-04-26 19:27 | 29.65289 | -95.26775 | 48 ft | 2 kts | 29° |
| 2026-04-26 19:27 | 29.65324 | -95.26779 | 48 ft | 6 kts | 321° |
| 2026-04-26 19:28 | 29.65349 | -95.26809 | 45 ft | 0 kts | 313° |
| 2026-04-26 19:29 | 29.65381 | -95.26849 | 47 ft | 12 kts | 307° |
| 2026-04-26 19:29 | 29.65366 | -95.26928 | 47 ft | 15 kts | 223° |
| 2026-04-26 19:29 | 29.65067 | -95.27259 | 47 ft | 121 kts | 225° |
| 2026-04-26 19:29 | 29.64324 | -95.28109 | 367 ft | 163 kts | 220° |
| 2026-04-26 19:30 | 29.63537 | -95.29144 | 1076 ft | 181 kts | 226° |
| 2026-04-26 19:30 | 29.63028 | -95.30557 | 1632 ft | 213 kts | 261° |
| 2026-04-26 19:30 | 29.63511 | -95.32323 | 2054 ft | 257 kts | 303° |
| 2026-04-26 19:30 | 29.64431 | -95.33258 | 2426 ft | 278 kts | 329° |
| 2026-04-26 19:31 | 29.66970 | -95.33590 | 3941 ft | 277 kts | 7° |
| 2026-04-26 19:31 | 29.68803 | -95.33191 | 4830 ft | 273 kts | 11° |
| 2026-04-26 19:31 | 29.70727 | -95.32711 | 5014 ft | 292 kts | 11° |
| 2026-04-26 19:31 | 29.72747 | -95.32185 | 5903 ft | 290 kts | 11° |
| 2026-04-26 19:32 | 29.74696 | -95.31660 | 7058 ft | 292 kts | 12° |
| 2026-04-26 19:32 | 29.76692 | -95.31106 | 8050 ft | 295 kts | 11° |
| 2026-04-26 19:32 | 29.78704 | -95.30539 | 9103 ft | 301 kts | 11° |
| 2026-04-26 19:32 | 29.80753 | -95.29955 | 10074 ft | 305 kts | 11° |
| 2026-04-26 19:33 | 29.82864 | -95.29353 | 10596 ft | 324 kts | 12° |
| 2026-04-26 19:33 | 29.85188 | -95.29166 | 10626 ft | 350 kts | 348° |
| 2026-04-26 19:33 | 29.87477 | -95.30230 | 11038 ft | 355 kts | 326° |
| 2026-04-26 19:33 | 29.89513 | -95.31791 | 12025 ft | 351 kts | 323° |
| 2026-04-26 19:34 | 29.91578 | -95.33333 | 12877 ft | 355 kts | 327° |
| 2026-04-26 19:34 | 29.93800 | -95.34614 | 13701 ft | 360 kts | 334° |
| 2026-04-26 19:34 | 29.96149 | -95.35663 | 14454 ft | 363 kts | 337° |
| 2026-04-26 19:34 | 29.98500 | -95.36747 | 15160 ft | 364 kts | 334° |
| 2026-04-26 19:35 | 30.00803 | -95.37984 | 15868 ft | 366 kts | 331° |
| 2026-04-26 19:35 | 30.03111 | -95.39235 | 16639 ft | 368 kts | 332° |
| 2026-04-26 19:35 | 30.05467 | -95.40422 | 17384 ft | 371 kts | 333° |
| 2026-04-26 19:35 | 30.07854 | -95.41610 | 18171 ft | 374 kts | 333° |
| 2026-04-26 19:36 | 30.10241 | -95.42844 | 18878 ft | 377 kts | 332° |
| 2026-04-26 19:36 | 30.11827 | -95.43673 | 19358 ft | 379 kts | 332° |
| 2026-04-26 19:36 | 30.15040 | -95.45328 | 20325 ft | 384 kts | 332° |
| 2026-04-26 19:36 | 30.17485 | -95.46574 | 21056 ft | 387 kts | 332° |
| 2026-04-26 19:37 | 30.19966 | -95.47852 | 21787 ft | 391 kts | 332° |
| 2026-04-26 19:37 | 30.22464 | -95.49142 | 22477 ft | 395 kts | 332° |
| 2026-04-26 19:37 | 30.24990 | -95.50443 | 23192 ft | 398 kts | 332° |
| 2026-04-26 19:37 | 30.27537 | -95.51755 | 23817 ft | 402 kts | 332° |
| 2026-04-26 19:38 | 30.30103 | -95.53077 | 24434 ft | 404 kts | 331° |
| 2026-04-26 19:38 | 30.32678 | -95.54407 | 25012 ft | 408 kts | 331° |
| 2026-04-26 19:38 | 30.35273 | -95.55748 | 25580 ft | 411 kts | 331° |
| 2026-04-26 19:38 | 30.37894 | -95.57101 | 26151 ft | 414 kts | 331° |
| 2026-04-26 19:39 | 30.40539 | -95.58468 | 26716 ft | 417 kts | 330° |
| 2026-04-26 19:39 | 30.43195 | -95.59842 | 27285 ft | 420 kts | 330° |
| 2026-04-26 19:39 | 30.45876 | -95.61230 | 27850 ft | 423 kts | 330° |
| 2026-04-26 19:39 | 30.48577 | -95.62630 | 28391 ft | 426 kts | 330° |
| 2026-04-26 19:40 | 30.51296 | -95.64038 | 28868 ft | 430 kts | 330° |
| 2026-04-26 19:40 | 30.54037 | -95.65460 | 29389 ft | 433 kts | 330° |
| 2026-04-26 19:40 | 30.56788 | -95.66913 | 29893 ft | 436 kts | 329° |
| 2026-04-26 19:40 | 30.59541 | -95.68405 | 30363 ft | 437 kts | 329° |
| 2026-04-26 19:41 | 30.62306 | -95.69892 | 30895 ft | 438 kts | 329° |
| 2026-04-26 19:41 | 30.65061 | -95.71350 | 31654 ft | 433 kts | 329° |
| 2026-04-26 19:41 | 30.67766 | -95.72788 | 32218 ft | 432 kts | 328° |
| 2026-04-26 19:41 | 30.69606 | -95.73777 | 32670 ft | 431 kts | 328° |
| 2026-04-26 19:42 | 30.73183 | -95.75698 | 33693 ft | 425 kts | 328° |
| 2026-04-26 19:42 | 30.75852 | -95.77124 | 34379 ft | 420 kts | 328° |
| 2026-04-26 19:42 | 30.78493 | -95.78537 | 35050 ft | 416 kts | 327° |
| 2026-04-26 19:42 | 30.81110 | -95.79943 | 35681 ft | 412 kts | 327° |
| 2026-04-26 19:43 | 30.83696 | -95.81332 | 36400 ft | 407 kts | 327° |
| 2026-04-26 19:43 | 30.86255 | -95.82704 | 37156 ft | 402 kts | 326° |
| 2026-04-26 19:43 | 30.88786 | -95.84063 | 37880 ft | 398 kts | 326° |
| 2026-04-26 19:43 | 30.91291 | -95.85411 | 38568 ft | 394 kts | 326° |
| 2026-04-26 19:44 | 30.93777 | -95.86750 | 39076 ft | 393 kts | 326° |
| 2026-04-26 19:44 | 30.96257 | -95.88088 | 39511 ft | 394 kts | 326° |
| 2026-04-26 19:44 | 30.98752 | -95.89431 | 39961 ft | 395 kts | 326° |
| 2026-04-26 19:44 | 31.01254 | -95.90778 | 40414 ft | 395 kts | 326° |
| 2026-04-26 19:45 | 31.03748 | -95.92123 | 40865 ft | 395 kts | 326° |
| 2026-04-26 19:45 | 31.06239 | -95.93467 | 41318 ft | 396 kts | 326° |
| 2026-04-26 19:45 | 31.08717 | -95.94804 | 41755 ft | 396 kts | 326° |
| 2026-04-26 19:45 | 31.11217 | -95.96155 | 42220 ft | 397 kts | 326° |
| 2026-04-26 19:46 | 31.13804 | -95.97347 | 42626 ft | 404 kts | 332° |
| 2026-04-26 19:46 | 31.16483 | -95.98358 | 43053 ft | 404 kts | 332° |
| 2026-04-26 19:46 | 31.19152 | -95.99396 | 43466 ft | 404 kts | 332° |
| 2026-04-26 19:46 | 31.21819 | -96.00446 | 43877 ft | 405 kts | 332° |
| 2026-04-26 19:47 | 31.24500 | -96.01485 | 44280 ft | 405 kts | 332° |
| 2026-04-26 19:47 | 31.25405 | -96.01833 | 44404 ft | 405 kts | 332° |
| 2026-04-26 19:47 | 31.29859 | -96.03553 | 44940 ft | 406 kts | 332° |
| 2026-04-26 19:47 | 31.32535 | -96.04596 | 45251 ft | 405 kts | 332° |
| 2026-04-26 19:48 | 31.35210 | -96.05637 | 45541 ft | 406 kts | 332° |
| 2026-04-26 19:48 | 31.37889 | -96.06677 | 45844 ft | 406 kts | 332° |
| 2026-04-26 19:48 | 31.40568 | -96.07717 | 46166 ft | 405 kts | 332° |
| 2026-04-26 19:48 | 31.43239 | -96.08756 | 46426 ft | 405 kts | 332° |
| 2026-04-26 19:49 | 31.45911 | -96.09798 | 46705 ft | 404 kts | 332° |
| 2026-04-26 19:49 | 31.48579 | -96.10837 | 46875 ft | 406 kts | 332° |
| 2026-04-26 19:49 | 31.54018 | -96.12965 | 46884 ft | 418 kts | 332° |
| 2026-04-26 19:50 | 31.59601 | -96.15141 | 46898 ft | 428 kts | 332° |
| 2026-04-26 19:50 | 31.65320 | -96.17378 | 46959 ft | 438 kts | 332° |
| 2026-04-26 19:51 | 31.71183 | -96.19673 | 46931 ft | 449 kts | 333° |
| 2026-04-26 19:51 | 31.77161 | -96.22016 | 46928 ft | 457 kts | 333° |
| 2026-04-26 19:52 | 31.83249 | -96.24405 | 46942 ft | 465 kts | 333° |
| 2026-04-26 19:52 | 31.89439 | -96.26838 | 46950 ft | 472 kts | 333° |
| 2026-04-26 19:53 | 31.95647 | -96.29280 | 46956 ft | 475 kts | 333° |
| 2026-04-26 19:53 | 32.01908 | -96.31747 | 46955 ft | 475 kts | 333° |
| 2026-04-26 19:54 | 32.08171 | -96.34221 | 46953 ft | 474 kts | 333° |
| 2026-04-26 19:54 | 32.14073 | -96.37414 | 46943 ft | 460 kts | 321° |
| 2026-04-26 19:55 | 32.19108 | -96.41907 | 46982 ft | 449 kts | 311° |
| 2026-04-26 19:55 | 32.23158 | -96.47444 | 46943 ft | 441 kts | 301° |
| 2026-04-26 19:56 | 32.26247 | -96.53565 | 46940 ft | 435 kts | 296° |
| 2026-04-26 19:56 | 32.29281 | -96.59777 | 46933 ft | 437 kts | 296° |
| 2026-04-26 19:57 | 32.32294 | -96.66020 | 46929 ft | 437 kts | 296° |
| 2026-04-26 19:57 | 32.35316 | -96.72260 | 46934 ft | 437 kts | 296° |
| 2026-04-26 19:58 | 32.37816 | -96.77443 | 46937 ft | 437 kts | 296° |
| 2026-04-26 19:58 | 32.40826 | -96.83689 | 46940 ft | 437 kts | 296° |
| 2026-04-26 19:59 | 32.43817 | -96.89904 | 46935 ft | 434 kts | 296° |
| 2026-04-26 19:59 | 32.46815 | -96.96148 | 46933 ft | 436 kts | 296° |
| 2026-04-26 20:00 | 32.49814 | -97.02397 | 46938 ft | 436 kts | 296° |
| 2026-04-26 20:00 | 32.52807 | -97.08653 | 46923 ft | 436 kts | 296° |
| 2026-04-26 20:01 | 32.55797 | -97.14909 | 46919 ft | 437 kts | 296° |
| 2026-04-26 20:01 | 32.58785 | -97.21172 | 46936 ft | 436 kts | 296° |
| 2026-04-26 20:02 | 32.61747 | -97.27391 | 46943 ft | 436 kts | 296° |
| 2026-04-26 20:02 | 32.64244 | -97.32642 | 46941 ft | 436 kts | 296° |
| 2026-04-26 20:03 | 32.67705 | -97.39933 | 46943 ft | 437 kts | 296° |
| 2026-04-26 20:03 | 32.70691 | -97.46234 | 46923 ft | 438 kts | 296° |
| 2026-04-26 20:04 | 32.73670 | -97.52532 | 46952 ft | 437 kts | 296° |
| 2026-04-26 20:04 | 32.76647 | -97.58837 | 46985 ft | 437 kts | 296° |
| 2026-04-26 20:05 | 32.79616 | -97.65133 | 47012 ft | 437 kts | 296° |
| 2026-04-26 20:05 | 32.82580 | -97.71433 | 46955 ft | 435 kts | 295° |
| 2026-04-26 20:06 | 32.85532 | -97.77720 | 46962 ft | 436 kts | 295° |
| 2026-04-26 20:06 | 32.88494 | -97.84033 | 46950 ft | 436 kts | 295° |
| 2026-04-26 20:07 | 32.91426 | -97.90297 | 46932 ft | 437 kts | 295° |
| 2026-04-26 20:07 | 32.92905 | -97.93461 | 46793 ft | 437 kts | 295° |
| 2026-04-26 20:07 | 32.94380 | -97.96617 | 46795 ft | 437 kts | 295° |
| 2026-04-26 20:08 | 32.97331 | -98.02945 | 46793 ft | 437 kts | 295° |
| 2026-04-26 20:08 | 33.00276 | -98.09268 | 46780 ft | 436 kts | 295° |
| 2026-04-26 20:09 | 33.03218 | -98.15596 | 46771 ft | 436 kts | 295° |
| 2026-04-26 20:09 | 33.06155 | -98.21925 | 46752 ft | 436 kts | 295° |
| 2026-04-26 20:10 | 33.09090 | -98.28262 | 46744 ft | 436 kts | 295° |
| 2026-04-26 20:10 | 33.12023 | -98.34603 | 46752 ft | 436 kts | 295° |
| 2026-04-26 20:11 | 33.14933 | -98.40906 | 46743 ft | 433 kts | 295° |
| 2026-04-26 20:12 | 33.19298 | -98.50384 | 46781 ft | 434 kts | 295° |
| 2026-04-26 20:12 | 33.22203 | -98.56705 | 46776 ft | 434 kts | 295° |
| 2026-04-26 20:13 | 33.25105 | -98.63031 | 46765 ft | 434 kts | 295° |
| 2026-04-26 20:13 | 33.28003 | -98.69358 | 46749 ft | 434 kts | 295° |
| 2026-04-26 20:14 | 33.30875 | -98.75639 | 46739 ft | 431 kts | 294° |
| 2026-04-26 20:14 | 33.33755 | -98.81952 | 46726 ft | 433 kts | 294° |
| 2026-04-26 20:15 | 33.36632 | -98.88266 | 46738 ft | 432 kts | 294° |
| 2026-04-26 20:15 | 33.39511 | -98.94598 | 46720 ft | 433 kts | 294° |
| 2026-04-26 20:16 | 33.42392 | -99.00944 | 46715 ft | 433 kts | 294° |
| 2026-04-26 20:16 | 33.45263 | -99.07281 | 46713 ft | 433 kts | 294° |
| 2026-04-26 20:17 | 33.48132 | -99.13624 | 46702 ft | 433 kts | 294° |
| 2026-04-26 20:17 | 33.50995 | -99.19964 | 46703 ft | 433 kts | 294° |
| 2026-04-26 20:18 | 33.53860 | -99.26322 | 46695 ft | 432 kts | 294° |
| 2026-04-26 20:18 | 33.56694 | -99.32621 | 46688 ft | 432 kts | 294° |
| 2026-04-26 20:19 | 33.59549 | -99.38978 | 46691 ft | 433 kts | 294° |
| 2026-04-26 20:19 | 33.62885 | -99.45072 | 46686 ft | 442 kts | 303° |
| 2026-04-26 20:20 | 33.66996 | -99.50620 | 46691 ft | 446 kts | 305° |
| 2026-04-26 20:20 | 33.71122 | -99.56184 | 46697 ft | 446 kts | 305° |
| 2026-04-26 20:21 | 33.75260 | -99.61723 | 46629 ft | 441 kts | 305° |
| 2026-04-26 20:21 | 33.77281 | -99.64435 | 46029 ft | 429 kts | 304° |
| 2026-04-26 20:21 | 33.79239 | -99.67072 | 45463 ft | 417 kts | 304° |
| 2026-04-26 20:21 | 33.81145 | -99.69642 | 44925 ft | 406 kts | 304° |
| 2026-04-26 20:22 | 33.82999 | -99.72141 | 44390 ft | 395 kts | 304° |
| 2026-04-26 20:22 | 33.84808 | -99.74579 | 43830 ft | 384 kts | 304° |
| 2026-04-26 20:22 | 33.86565 | -99.76950 | 43327 ft | 376 kts | 303° |
| 2026-04-26 20:22 | 33.88266 | -99.79255 | 42850 ft | 373 kts | 303° |
| 2026-04-26 20:23 | 33.89999 | -99.81604 | 42361 ft | 377 kts | 303° |
| 2026-04-26 20:23 | 33.91755 | -99.83982 | 41876 ft | 381 kts | 303° |
| 2026-04-26 20:23 | 33.93524 | -99.86370 | 41366 ft | 382 kts | 303° |
| 2026-04-26 20:23 | 33.95297 | -99.88766 | 40854 ft | 383 kts | 303° |
| 2026-04-26 20:24 | 33.97068 | -99.91168 | 40349 ft | 384 kts | 303° |
| 2026-04-26 20:24 | 33.98846 | -99.93580 | 39841 ft | 385 kts | 303° |
| 2026-04-26 20:24 | 34.00624 | -99.95992 | 39335 ft | 385 kts | 303° |
| 2026-04-26 20:24 | 34.02404 | -99.98408 | 38834 ft | 386 kts | 302° |
| 2026-04-26 20:25 | 34.04186 | -100.00830 | 38312 ft | 387 kts | 302° |
| 2026-04-26 20:25 | 34.05371 | -100.02442 | 37940 ft | 387 kts | 302° |
| 2026-04-26 20:25 | 34.07774 | -100.05714 | 37254 ft | 392 kts | 303° |
| 2026-04-26 20:25 | 34.09588 | -100.08184 | 36736 ft | 394 kts | 303° |
| 2026-04-26 20:26 | 34.11415 | -100.10672 | 36212 ft | 398 kts | 303° |
| 2026-04-26 20:26 | 34.13255 | -100.13180 | 35698 ft | 400 kts | 303° |
| 2026-04-26 20:26 | 34.15106 | -100.15706 | 35168 ft | 403 kts | 303° |
| 2026-04-26 20:26 | 34.16972 | -100.18255 | 34649 ft | 406 kts | 304° |
| 2026-04-26 20:27 | 34.18848 | -100.20818 | 34107 ft | 409 kts | 304° |
| 2026-04-26 20:27 | 34.20742 | -100.23408 | 33555 ft | 414 kts | 304° |
| 2026-04-26 20:27 | 34.22625 | -100.25985 | 33010 ft | 416 kts | 304° |
| 2026-04-26 20:27 | 34.24546 | -100.28613 | 32464 ft | 418 kts | 304° |
| 2026-04-26 20:28 | 34.26478 | -100.31261 | 31913 ft | 421 kts | 304° |
| 2026-04-26 20:28 | 34.28423 | -100.33930 | 31311 ft | 424 kts | 304° |
| 2026-04-26 20:28 | 34.30382 | -100.36620 | 30761 ft | 427 kts | 304° |
| 2026-04-26 20:28 | 34.32348 | -100.39320 | 30188 ft | 430 kts | 304° |
| 2026-04-26 20:29 | 34.34323 | -100.42031 | 29593 ft | 427 kts | 304° |
| 2026-04-26 20:29 | 34.36277 | -100.44714 | 29017 ft | 423 kts | 304° |
| 2026-04-26 20:29 | 34.38210 | -100.47377 | 28460 ft | 420 kts | 304° |
| 2026-04-26 20:29 | 34.40130 | -100.50025 | 27913 ft | 416 kts | 304° |
| 2026-04-26 20:30 | 34.42032 | -100.52648 | 27363 ft | 413 kts | 304° |
| 2026-04-26 20:30 | 34.43926 | -100.55261 | 26820 ft | 410 kts | 304° |
| 2026-04-26 20:30 | 34.45803 | -100.57852 | 26274 ft | 408 kts | 304° |
| 2026-04-26 20:30 | 34.47673 | -100.60440 | 25742 ft | 407 kts | 304° |
| 2026-04-26 20:31 | 34.49535 | -100.63013 | 25204 ft | 404 kts | 304° |
| 2026-04-26 20:31 | 34.51380 | -100.65562 | 24674 ft | 401 kts | 304° |
| 2026-04-26 20:31 | 34.53207 | -100.68095 | 24156 ft | 397 kts | 304° |
| 2026-04-26 20:31 | 34.55021 | -100.70611 | 23628 ft | 395 kts | 304° |
| 2026-04-26 20:32 | 34.56825 | -100.73113 | 23074 ft | 392 kts | 304° |
| 2026-04-26 20:32 | 34.58615 | -100.75597 | 22547 ft | 389 kts | 304° |
| 2026-04-26 20:32 | 34.60393 | -100.78066 | 22035 ft | 387 kts | 304° |
| 2026-04-26 20:32 | 34.62133 | -100.80487 | 21532 ft | 385 kts | 304° |
| 2026-04-26 20:33 | 34.63910 | -100.82958 | 21024 ft | 382 kts | 304° |
| 2026-04-26 20:33 | 34.65627 | -100.85347 | 20535 ft | 380 kts | 304° |
| 2026-04-26 20:33 | 34.67360 | -100.87761 | 20043 ft | 378 kts | 304° |
| 2026-04-26 20:33 | 34.69081 | -100.90160 | 19553 ft | 376 kts | 304° |
| 2026-04-26 20:34 | 34.70793 | -100.92548 | 19064 ft | 373 kts | 304° |
| 2026-04-26 20:34 | 34.72491 | -100.94918 | 18580 ft | 371 kts | 304° |
| 2026-04-26 20:34 | 34.74185 | -100.97285 | 18097 ft | 370 kts | 304° |
| 2026-04-26 20:34 | 34.75869 | -100.99637 | 17586 ft | 367 kts | 304° |
| 2026-04-26 20:35 | 34.77541 | -101.01975 | 17099 ft | 365 kts | 304° |
| 2026-04-26 20:35 | 34.79202 | -101.04300 | 16623 ft | 363 kts | 304° |
| 2026-04-26 20:35 | 34.80854 | -101.06614 | 16151 ft | 361 kts | 304° |
| 2026-04-26 20:35 | 34.82500 | -101.08920 | 15680 ft | 360 kts | 304° |
| 2026-04-26 20:36 | 34.84136 | -101.11214 | 15216 ft | 358 kts | 304° |
| 2026-04-26 20:36 | 34.85762 | -101.13496 | 14752 ft | 356 kts | 304° |
| 2026-04-26 20:36 | 34.87358 | -101.15738 | 14299 ft | 355 kts | 304° |
| 2026-04-26 20:36 | 34.88970 | -101.18002 | 13839 ft | 353 kts | 304° |
| 2026-04-26 20:37 | 34.90573 | -101.20254 | 13369 ft | 351 kts | 304° |
| 2026-04-26 20:37 | 34.92165 | -101.22496 | 12900 ft | 349 kts | 304° |
| 2026-04-26 20:37 | 34.93755 | -101.24735 | 12451 ft | 348 kts | 304° |
| 2026-04-26 20:37 | 34.95340 | -101.26967 | 11995 ft | 347 kts | 304° |
| 2026-04-26 20:38 | 34.96917 | -101.29189 | 11542 ft | 345 kts | 304° |
| 2026-04-26 20:38 | 34.98484 | -101.31400 | 11091 ft | 346 kts | 304° |
| 2026-04-26 20:38 | 35.00012 | -101.33545 | 10661 ft | 322 kts | 304° |
| 2026-04-26 20:38 | 35.01427 | -101.35530 | 10301 ft | 299 kts | 303° |
| 2026-04-26 20:39 | 35.02748 | -101.37407 | 9962 ft | 288 kts | 303° |
| 2026-04-26 20:39 | 35.03608 | -101.38635 | 9727 ft | 286 kts | 303° |
| 2026-04-26 20:39 | 35.05340 | -101.41092 | 9221 ft | 286 kts | 303° |
| 2026-04-26 20:39 | 35.06641 | -101.42930 | 8851 ft | 285 kts | 304° |
| 2026-04-26 20:40 | 35.07947 | -101.44775 | 8493 ft | 289 kts | 304° |
| 2026-04-26 20:40 | 35.09470 | -101.46402 | 8035 ft | 297 kts | 324° |
| 2026-04-26 20:40 | 35.11434 | -101.47224 | 7661 ft | 305 kts | 348° |
| 2026-04-26 20:40 | 35.13535 | -101.47078 | 7339 ft | 311 kts | 12° |
| 2026-04-26 20:41 | 35.15530 | -101.46150 | 6924 ft | 305 kts | 25° |
| 2026-04-26 20:41 | 35.17530 | -101.45104 | 6594 ft | 306 kts | 24° |
| 2026-04-26 20:41 | 35.19467 | -101.44097 | 6391 ft | 302 kts | 24° |
| 2026-04-26 20:41 | 35.21378 | -101.43109 | 6044 ft | 299 kts | 24° |
| 2026-04-26 20:42 | 35.23388 | -101.42455 | 5559 ft | 303 kts | 4° |
| 2026-04-26 20:42 | 35.25394 | -101.42936 | 5357 ft | 287 kts | 335° |
| 2026-04-26 20:42 | 35.27029 | -101.44327 | 5380 ft | 279 kts | 311° |
| 2026-04-26 20:42 | 35.28363 | -101.46113 | 5414 ft | 286 kts | 308° |
| 2026-04-26 20:43 | 35.29675 | -101.47907 | 5406 ft | 268 kts | 307° |
| 2026-04-26 20:43 | 35.30912 | -101.49577 | 5411 ft | 276 kts | 307° |
| 2026-04-26 20:43 | 35.32129 | -101.51220 | 5407 ft | 244 kts | 308° |
| 2026-04-26 20:43 | 35.33240 | -101.52719 | 5402 ft | 234 kts | 308° |
| 2026-04-26 20:44 | 35.34194 | -101.54294 | 5321 ft | 217 kts | 288° |
| 2026-04-26 20:44 | 35.34431 | -101.55928 | 5331 ft | 176 kts | 262° |
| 2026-04-26 20:44 | 35.34176 | -101.57347 | 5385 ft | 164 kts | 240° |
| 2026-04-26 20:44 | 35.33579 | -101.58473 | 5413 ft | 157 kts | 223° |
| 2026-04-26 20:45 | 35.32767 | -101.59370 | 5429 ft | 156 kts | 217° |
| 2026-04-26 20:45 | 35.31968 | -101.60256 | 5446 ft | 159 kts | 218° |
| 2026-04-26 20:45 | 35.31229 | -101.61082 | 5397 ft | 127 kts | 217° |
| 2026-04-26 20:45 | 35.30601 | -101.61773 | 5413 ft | 121 kts | 214° |
| 2026-04-26 20:46 | 35.30189 | -101.62224 | 5345 ft | 118 kts | 217° |
| 2026-04-26 20:46 | 35.29578 | -101.62896 | 5254 ft | 120 kts | 216° |
| 2026-04-26 20:46 | 35.28749 | -101.63804 | 5141 ft | 121 kts | 217° |
| 2026-04-26 20:46 | 35.28132 | -101.64484 | 4999 ft | 117 kts | 216° |
| 2026-04-26 20:47 | 35.27516 | -101.65158 | 4841 ft | 119 kts | 216° |
| 2026-04-26 20:47 | 35.27308 | -101.65387 | 4787 ft | 120 kts | 218° |
| 2026-04-26 20:47 | 35.26495 | -101.66281 | 4569 ft | 115 kts | 217° |
| 2026-04-26 20:47 | 35.25904 | -101.66898 | 4386 ft | 109 kts | 214° |
| 2026-04-26 20:48 | 35.25286 | -101.67450 | 4234 ft | 114 kts | 211° |
| 2026-04-26 20:48 | 35.24700 | -101.68053 | 4274 ft | 105 kts | 218° |
| 2026-04-26 20:48 | 35.24172 | -101.68657 | 4240 ft | 103 kts | 220° |
| 2026-04-26 20:48 | 35.23693 | -101.69265 | 4056 ft | 98 kts | 224° |
| 2026-04-26 20:49 | 35.23197 | -101.69863 | 3742 ft | 102 kts | 226° |
| 2026-04-26 20:49 | 35.22732 | -101.70462 | 3641 ft | 87 kts | 224° |
| 2026-04-26 20:49 | 35.22367 | -101.70924 | 3618 ft | 61 kts | 225° |
| 2026-04-26 20:49 | 35.22184 | -101.71157 | 3613 ft | 29 kts | 226° |
| 2026-04-26 20:50 | 35.22059 | -101.71281 | 3614 ft | 18 kts | 184° |
| 2026-04-26 20:50 | 35.21962 | -101.71204 | 3614 ft | 17 kts | 136° |
| 2026-04-26 20:50 | 35.21878 | -101.71105 | 3613 ft | 17 kts | 136° |
| 2026-04-26 20:50 | 35.21799 | -101.71012 | 3615 ft | 14 kts | 135° |
| 2026-04-26 20:51 | 35.21758 | -101.70926 | 3617 ft | 11 kts | 99° |
| 2026-04-26 20:51 | 35.21719 | -101.70881 | 3616 ft | 7 kts | 214° |
| 2026-04-26 20:51 | 35.21714 | -101.70894 | 3617 ft | 0 kts | 258° |